sensor_id;sensor_type;location;lat;lon;timestamp;pressure;altitude;pressure_sealevel;temperature;humidity
66021;BME280;52789;59.980;30.346;2023-11-19T00:00:57;102148.75;;;-3.62;96.57
66021;BME280;52789;59.980;30.346;2023-11-19T00:03:22;102142.66;;;-3.61;97.02
66021;BME280;52789;59.980;30.346;2023-11-19T00:05:48;102135.78;;;-3.63;96.81
66021;BME280;52789;59.980;30.346;2023-11-19T00:08:13;102097.19;;;-3.82;96.96
66021;BME280;52789;59.980;30.346;2023-11-19T00:10:39;102135.75;;;-3.62;96.80
66021;BME280;52789;59.980;30.346;2023-11-19T00:13:05;102146.78;;;-3.52;96.93
66021;BME280;52789;59.980;30.346;2023-11-19T00:15:30;102107.47;;;-3.76;96.42
66021;BME280;52789;59.980;30.346;2023-11-19T00:17:56;102120.13;;;-3.62;96.11
66021;BME280;52789;59.980;30.346;2023-11-19T00:20:21;102121.91;;;-3.64;96.64
66021;BME280;52789;59.980;30.346;2023-11-19T00:22:48;102139.78;;;-3.50;97.24
66021;BME280;52789;59.980;30.346;2023-11-19T00:25:17;102101.22;;;-3.68;97.03
66021;BME280;52789;59.980;30.346;2023-11-19T00:27:44;102106.16;;;-3.59;96.78
66021;BME280;52789;59.980;30.346;2023-11-19T00:30:10;102131.03;;;-3.48;96.33
66021;BME280;52789;59.980;30.346;2023-11-19T00:32:36;102120.59;;;-3.48;95.91
66021;BME280;52789;59.980;30.346;2023-11-19T00:35:07;102091.44;;;-3.60;95.85
66021;BME280;52789;59.980;30.346;2023-11-19T00:37:33;102108.44;;;-3.47;96.29
66021;BME280;52789;59.980;30.346;2023-11-19T00:39:58;102062.16;;;-3.68;95.95
66021;BME280;52789;59.980;30.346;2023-11-19T00:42:24;102119.50;;;-3.37;95.78
66021;BME280;52789;59.980;30.346;2023-11-19T00:44:50;102039.06;;;-3.82;95.45
66021;BME280;52789;59.980;30.346;2023-11-19T00:47:16;102089.53;;;-3.54;95.74
66021;BME280;52789;59.980;30.346;2023-11-19T00:49:41;102032.31;;;-3.89;95.55
66021;BME280;52789;59.980;30.346;2023-11-19T00:52:08;102092.09;;;-3.52;95.99
66021;BME280;52789;59.980;30.346;2023-11-19T00:54:34;102085.97;;;-3.51;95.12
66021;BME280;52789;59.980;30.346;2023-11-19T00:56:59;102084.31;;;-3.54;94.70
66021;BME280;52789;59.980;30.346;2023-11-19T00:59:27;102097.16;;;-3.48;94.84
66021;BME280;52789;59.980;30.346;2023-11-19T01:01:54;102074.97;;;-3.61;93.84
66021;BME280;52789;59.980;30.346;2023-11-19T01:04:19;102082.59;;;-3.55;94.01
66021;BME280;52789;59.980;30.346;2023-11-19T01:06:45;102079.09;;;-3.54;93.15
66021;BME280;52789;59.980;30.346;2023-11-19T01:09:11;102061.13;;;-3.63;91.88
66021;BME280;52789;59.980;30.346;2023-11-19T01:11:36;102056.94;;;-3.68;92.11
66021;BME280;52789;59.980;30.346;2023-11-19T01:14:02;102069.72;;;-3.59;91.77
66021;BME280;52789;59.980;30.346;2023-11-19T01:16:28;102082.41;;;-3.47;91.28
66021;BME280;52789;59.980;30.346;2023-11-19T01:18:54;102083.38;;;-3.51;91.55
66021;BME280;52789;59.980;30.346;2023-11-19T01:21:19;102057.06;;;-3.73;91.52
66021;BME280;52789;59.980;30.346;2023-11-19T01:23:45;102069.84;;;-3.64;92.26
66021;BME280;52789;59.980;30.346;2023-11-19T01:26:12;102063.69;;;-3.61;90.33
66021;BME280;52789;59.980;30.346;2023-11-19T01:28:39;102053.38;;;-3.64;89.83
66021;BME280;52789;59.980;30.346;2023-11-19T01:31:05;102078.97;;;-3.49;89.84
66021;BME280;52789;59.980;30.346;2023-11-19T01:33:35;102062.81;;;-3.60;88.92
66021;BME280;52789;59.980;30.346;2023-11-19T01:36:01;102071.41;;;-3.58;89.25
66021;BME280;52789;59.980;30.346;2023-11-19T01:38:27;102076.59;;;-3.57;88.79
66021;BME280;52789;59.980;30.346;2023-11-19T01:40:56;102077.41;;;-3.55;88.08
66021;BME280;52789;59.980;30.346;2023-11-19T01:43:43;102081.72;;;-3.54;88.15
66021;BME280;52789;59.980;30.346;2023-11-19T01:46:12;102046.66;;;-3.73;88.07
66021;BME280;52789;59.980;30.346;2023-11-19T01:48:44;102082.41;;;-3.47;87.68
66021;BME280;52789;59.980;30.346;2023-11-19T01:51:11;102062.75;;;-3.59;87.13
66021;BME280;52789;59.980;30.346;2023-11-19T01:53:39;102066.34;;;-3.63;86.90
66021;BME280;52789;59.980;30.346;2023-11-19T01:56:07;102041.66;;;-3.82;87.49
66021;BME280;52789;59.980;30.346;2023-11-19T01:58:36;102071.63;;;-3.66;88.19
66021;BME280;52789;59.980;30.346;2023-11-19T02:01:02;102063.75;;;-3.63;87.97
66021;BME280;52789;59.980;30.346;2023-11-19T02:03:31;102061.34;;;-3.70;87.54
66021;BME280;52789;59.980;30.346;2023-11-19T02:05:59;102030.53;;;-3.87;88.02
66021;BME280;52789;59.980;30.346;2023-11-19T02:08:25;102059.81;;;-3.79;88.29
66021;BME280;52789;59.980;30.346;2023-11-19T02:10:52;102062.31;;;-3.75;87.73
66021;BME280;52789;59.980;30.346;2023-11-19T02:13:20;102055.50;;;-3.80;88.04
66021;BME280;52789;59.980;30.346;2023-11-19T02:16:11;102033.13;;;-3.87;87.94
66021;BME280;52789;59.980;30.346;2023-11-19T02:18:38;102067.28;;;-3.65;88.17
66021;BME280;52789;59.980;30.346;2023-11-19T02:21:04;102029.50;;;-3.82;87.14
66021;BME280;52789;59.980;30.346;2023-11-19T02:23:30;102065.34;;;-3.59;88.27
66021;BME280;52789;59.980;30.346;2023-11-19T02:26:16;102069.50;;;-3.52;88.02
66021;BME280;52789;59.980;30.346;2023-11-19T02:28:43;101985.63;;;-3.95;87.90
66021;BME280;52789;59.980;30.346;2023-11-19T02:31:10;102043.03;;;-3.67;87.26
66021;BME280;52789;59.980;30.346;2023-11-19T02:33:39;102060.19;;;-3.60;87.89
66021;BME280;52789;59.980;30.346;2023-11-19T02:36:06;102057.88;;;-3.71;86.82
66021;BME280;52789;59.980;30.346;2023-11-19T02:38:33;102050.38;;;-3.83;86.68
66021;BME280;52789;59.980;30.346;2023-11-19T02:41:03;102058.78;;;-3.72;87.27
66021;BME280;52789;59.980;30.346;2023-11-19T02:43:30;102046.72;;;-3.76;86.70
66021;BME280;52789;59.980;30.346;2023-11-19T02:46:02;102057.94;;;-3.72;86.40
66021;BME280;52789;59.980;30.346;2023-11-19T02:48:29;102047.69;;;-3.80;86.68
66021;BME280;52789;59.980;30.346;2023-11-19T02:50:56;101991.22;;;-4.11;86.45
66021;BME280;52789;59.980;30.346;2023-11-19T02:53:24;102057.75;;;-3.66;85.98
66021;BME280;52789;59.980;30.346;2023-11-19T02:55:50;102038.97;;;-3.79;84.44
66021;BME280;52789;59.980;30.346;2023-11-19T02:58:16;102052.75;;;-3.74;84.67
66021;BME280;52789;59.980;30.346;2023-11-19T03:00:53;102027.19;;;-3.92;84.84
66021;BME280;52789;59.980;30.346;2023-11-19T03:03:34;101998.91;;;-4.04;85.47
66021;BME280;52789;59.980;30.346;2023-11-19T03:06:07;102047.47;;;-3.71;85.44
66021;BME280;52789;59.980;30.346;2023-11-19T03:08:35;102015.78;;;-3.87;86.01
66021;BME280;52789;59.980;30.346;2023-11-19T03:11:01;102049.94;;;-3.66;86.02
66021;BME280;52789;59.980;30.346;2023-11-19T03:13:27;102034.38;;;-3.68;85.78
66021;BME280;52789;59.980;30.346;2023-11-19T03:15:53;102007.19;;;-3.90;85.95
66021;BME280;52789;59.980;30.346;2023-11-19T03:18:20;102037.94;;;-3.72;85.35
66021;BME280;52789;59.980;30.346;2023-11-19T03:20:49;101992.72;;;-4.00;84.83
66021;BME280;52789;59.980;30.346;2023-11-19T03:23:15;102015.56;;;-3.79;84.38
66021;BME280;52789;59.980;30.346;2023-11-19T03:25:41;102026.06;;;-3.82;84.40
66021;BME280;52789;59.980;30.346;2023-11-19T03:28:09;101951.63;;;-4.22;84.26
66021;BME280;52789;59.980;30.346;2023-11-19T03:30:35;102010.66;;;-3.90;84.21
66021;BME280;52789;59.980;30.346;2023-11-19T03:33:00;102028.56;;;-3.79;84.09
66021;BME280;52789;59.980;30.346;2023-11-19T03:35:26;102015.69;;;-3.84;83.96
66021;BME280;52789;59.980;30.346;2023-11-19T03:37:53;102016.31;;;-3.74;82.84
66021;BME280;52789;59.980;30.346;2023-11-19T03:40:18;102000.84;;;-3.80;83.04
66021;BME280;52789;59.980;30.346;2023-11-19T03:42:46;102017.13;;;-3.72;82.00
66021;BME280;52789;59.980;30.346;2023-11-19T03:45:12;102015.34;;;-3.70;82.07
66021;BME280;52789;59.980;30.346;2023-11-19T03:47:38;101980.31;;;-3.91;80.87
66021;BME280;52789;59.980;30.346;2023-11-19T03:50:04;102005.88;;;-3.72;81.32
66021;BME280;52789;59.980;30.346;2023-11-19T03:52:30;101998.94;;;-3.73;82.21
66021;BME280;52789;59.980;30.346;2023-11-19T03:54:56;102007.63;;;-3.73;81.49
66021;BME280;52789;59.980;30.346;2023-11-19T03:57:23;101996.41;;;-3.77;82.70
66021;BME280;52789;59.980;30.346;2023-11-19T03:59:49;102007.31;;;-3.62;82.15
66021;BME280;52789;59.980;30.346;2023-11-19T04:02:15;101998.72;;;-3.66;81.77
66021;BME280;52789;59.980;30.346;2023-11-19T04:04:41;101857.28;;;-4.59;80.59
66021;BME280;52789;59.980;30.346;2023-11-19T04:07:07;102009.06;;;-3.63;81.11
66021;BME280;52789;59.980;30.346;2023-11-19T04:09:32;101985.31;;;-3.83;80.41
66021;BME280;52789;59.980;30.346;2023-11-19T04:11:59;101968.16;;;-3.90;80.94
66021;BME280;52789;59.980;30.346;2023-11-19T04:14:25;101991.13;;;-3.73;81.28
66021;BME280;52789;59.980;30.346;2023-11-19T04:16:51;101987.56;;;-3.69;80.92
66021;BME280;52789;59.980;30.346;2023-11-19T04:19:18;101971.44;;;-3.84;81.83
66021;BME280;52789;59.980;30.346;2023-11-19T04:21:44;101962.84;;;-3.87;81.86
66021;BME280;52789;59.980;30.346;2023-11-19T04:24:09;101978.38;;;-3.84;81.16
66021;BME280;52789;59.980;30.346;2023-11-19T04:26:44;101872.53;;;-4.47;81.24
66021;BME280;52789;59.980;30.346;2023-11-19T04:29:12;101976.50;;;-3.79;80.30
66021;BME280;52789;59.980;30.346;2023-11-19T04:31:39;101986.84;;;-3.76;80.35
66021;BME280;52789;59.980;30.346;2023-11-19T04:34:05;101969.59;;;-3.80;80.28
66021;BME280;52789;59.980;30.346;2023-11-19T04:36:32;101978.00;;;-3.69;80.74
66021;BME280;52789;59.980;30.346;2023-11-19T04:39:01;101976.38;;;-3.73;80.05
66021;BME280;52789;59.980;30.346;2023-11-19T04:41:28;101966.19;;;-3.82;80.56
66021;BME280;52789;59.980;30.346;2023-11-19T04:43:54;101962.69;;;-3.81;80.53
66021;BME280;52789;59.980;30.346;2023-11-19T04:46:20;101967.66;;;-3.72;80.01
66021;BME280;52789;59.980;30.346;2023-11-19T04:48:46;101976.50;;;-3.79;80.34
66021;BME280;52789;59.980;30.346;2023-11-19T04:51:12;101972.19;;;-3.80;81.18
66021;BME280;52789;59.980;30.346;2023-11-19T04:53:37;101967.81;;;-3.78;79.73
66021;BME280;52789;59.980;30.346;2023-11-19T04:56:10;101952.44;;;-3.87;79.80
66021;BME280;52789;59.980;30.346;2023-11-19T04:58:36;101970.31;;;-3.73;78.90
66021;BME280;52789;59.980;30.346;2023-11-19T05:01:05;101957.47;;;-3.81;78.56
66021;BME280;52789;59.980;30.346;2023-11-19T05:03:31;101966.94;;;-3.79;78.53
66021;BME280;52789;59.980;30.346;2023-11-19T05:05:58;101963.66;;;-3.85;79.45
66021;BME280;52789;59.980;30.346;2023-11-19T05:08:24;101972.34;;;-3.85;80.78
66021;BME280;52789;59.980;30.346;2023-11-19T05:10:49;101971.56;;;-3.88;81.26
66021;BME280;52789;59.980;30.346;2023-11-19T05:13:15;101950.69;;;-3.87;82.08
66021;BME280;52789;59.980;30.346;2023-11-19T05:15:41;101949.66;;;-3.81;80.57
66021;BME280;52789;59.980;30.346;2023-11-19T05:18:06;101964.16;;;-3.71;79.40
66021;BME280;52789;59.980;30.346;2023-11-19T05:20:32;101941.06;;;-3.83;79.51
66021;BME280;52789;59.980;30.346;2023-11-19T05:22:58;101966.72;;;-3.69;80.45
66021;BME280;52789;59.980;30.346;2023-11-19T05:25:26;101969.16;;;-3.63;79.78
66021;BME280;52789;59.980;30.346;2023-11-19T05:27:54;101933.25;;;-3.83;80.21
66021;BME280;52789;59.980;30.346;2023-11-19T05:30:20;101954.56;;;-3.69;80.48
66021;BME280;52789;59.980;30.346;2023-11-19T05:32:45;101946.94;;;-3.75;79.76
66021;BME280;52789;59.980;30.346;2023-11-19T05:35:11;101971.06;;;-3.70;79.56
66021;BME280;52789;59.980;30.346;2023-11-19T05:37:37;101958.56;;;-3.88;80.61
66021;BME280;52789;59.980;30.346;2023-11-19T05:40:04;101945.72;;;-3.94;80.95
66021;BME280;52789;59.980;30.346;2023-11-19T05:42:32;101966.09;;;-3.79;80.96
66021;BME280;52789;59.980;30.346;2023-11-19T05:44:57;101971.06;;;-3.70;81.03
66021;BME280;52789;59.980;30.346;2023-11-19T05:47:23;101962.19;;;-3.63;80.64
66021;BME280;52789;59.980;30.346;2023-11-19T05:49:49;101945.84;;;-3.68;80.05
66021;BME280;52789;59.980;30.346;2023-11-19T05:52:14;101962.19;;;-3.63;79.36
66021;BME280;52789;59.980;30.346;2023-11-19T05:54:40;101962.28;;;-3.66;79.95
66021;BME280;52789;59.980;30.346;2023-11-19T05:57:05;101963.19;;;-3.67;80.82
66021;BME280;52789;59.980;30.346;2023-11-19T05:59:35;101935.84;;;-3.83;80.15
66021;BME280;52789;59.980;30.346;2023-11-19T06:02:02;101793.50;;;-4.73;80.59
66021;BME280;52789;59.980;30.346;2023-11-19T06:04:28;101894.84;;;-4.06;80.97
66021;BME280;52789;59.980;30.346;2023-11-19T06:06:54;101932.22;;;-3.78;80.91
66021;BME280;52789;59.980;30.346;2023-11-19T06:09:22;101933.72;;;-3.69;81.60
66021;BME280;52789;59.980;30.346;2023-11-19T06:11:50;101952.34;;;-3.53;81.60
66021;BME280;52789;59.980;30.346;2023-11-19T06:14:16;101959.22;;;-3.51;81.51
66021;BME280;52789;59.980;30.346;2023-11-19T06:16:42;101965.44;;;-3.55;81.72
66021;BME280;52789;59.980;30.346;2023-11-19T06:19:07;101950.13;;;-3.65;82.35
66021;BME280;52789;59.980;30.346;2023-11-19T06:21:33;101917.50;;;-3.79;82.55
66021;BME280;52789;59.980;30.346;2023-11-19T06:24:00;101958.41;;;-3.53;82.21
66021;BME280;52789;59.980;30.346;2023-11-19T06:26:26;101964.47;;;-3.52;83.10
66021;BME280;52789;59.980;30.346;2023-11-19T06:28:53;101960.94;;;-3.50;82.97
66021;BME280;52789;59.980;30.346;2023-11-19T06:31:19;101944.69;;;-3.58;82.91
66021;BME280;52789;59.980;30.346;2023-11-19T06:33:45;101784.31;;;-4.53;82.59
66021;BME280;52789;59.980;30.346;2023-11-19T06:36:14;101905.28;;;-3.75;82.48
66021;BME280;52789;59.980;30.346;2023-11-19T06:38:42;101958.91;;;-3.38;81.52
66021;BME280;52789;59.980;30.346;2023-11-19T06:41:08;101920.34;;;-3.57;81.88
66021;BME280;52789;59.980;30.346;2023-11-19T06:43:34;101957.31;;;-3.44;82.05
66021;BME280;52789;59.980;30.346;2023-11-19T06:46:01;101948.91;;;-3.54;81.24
66021;BME280;52789;59.980;30.346;2023-11-19T06:48:27;101953.47;;;-3.62;81.85
66021;BME280;52789;59.980;30.346;2023-11-19T06:50:52;101932.94;;;-3.71;82.66
66021;BME280;52789;59.980;30.346;2023-11-19T06:53:19;101919.06;;;-3.71;84.00
66021;BME280;52789;59.980;30.346;2023-11-19T06:55:44;101950.31;;;-3.42;83.12
66021;BME280;52789;59.980;30.346;2023-11-19T06:58:10;101920.44;;;-3.60;81.92
66021;BME280;52789;59.980;30.346;2023-11-19T07:00:35;101917.97;;;-3.64;82.90
66021;BME280;52789;59.980;30.346;2023-11-19T07:03:01;101931.44;;;-3.50;81.92
66021;BME280;52789;59.980;30.346;2023-11-19T07:05:27;101928.59;;;-3.41;82.66
66021;BME280;52789;59.980;30.346;2023-11-19T07:07:53;101935.16;;;-3.29;81.77
66021;BME280;52789;59.980;30.346;2023-11-19T07:10:19;101897.63;;;-3.52;81.74
66021;BME280;52789;59.980;30.346;2023-11-19T07:12:45;101868.13;;;-3.52;81.17
66021;BME280;52789;59.980;30.346;2023-11-19T07:15:11;101942.31;;;-3.06;81.14
66021;BME280;52789;59.980;30.346;2023-11-19T07:17:39;101941.44;;;-3.07;80.32
66021;BME280;52789;59.980;30.346;2023-11-19T07:20:05;101941.44;;;-3.07;79.46
66021;BME280;52789;59.980;30.346;2023-11-19T07:22:31;101946.94;;;-3.16;79.35
66021;BME280;52789;59.980;30.346;2023-11-19T07:24:57;101942.59;;;-3.16;78.90
66021;BME280;52789;59.980;30.346;2023-11-19T07:27:22;101882.16;;;-3.56;78.89
66021;BME280;52789;59.980;30.346;2023-11-19T07:29:49;101903.25;;;-3.36;79.38
66021;BME280;52789;59.980;30.346;2023-11-19T07:32:15;101895.53;;;-3.39;79.93
66021;BME280;52789;59.980;30.346;2023-11-19T07:34:40;101941.66;;;-3.13;79.52
66021;BME280;52789;59.980;30.346;2023-11-19T07:37:06;101938.13;;;-3.12;80.63
66021;BME280;52789;59.980;30.346;2023-11-19T07:39:32;101910.72;;;-3.25;80.73
66021;BME280;52789;59.980;30.346;2023-11-19T07:41:58;101938.78;;;-3.05;80.93
66021;BME280;52789;59.980;30.346;2023-11-19T07:44:23;101920.50;;;-3.04;80.84
66021;BME280;52789;59.980;30.346;2023-11-19T07:46:50;101913.63;;;-3.06;80.15
66021;BME280;52789;59.980;30.346;2023-11-19T07:49:15;101942.59;;;-2.88;80.41
66021;BME280;52789;59.980;30.346;2023-11-19T07:51:41;101942.59;;;-2.88;80.98
66021;BME280;52789;59.980;30.346;2023-11-19T07:54:07;101930.47;;;-2.90;80.05
66021;BME280;52789;59.980;30.346;2023-11-19T07:56:35;101930.47;;;-2.89;78.93
66021;BME280;52789;59.980;30.346;2023-11-19T07:59:02;101908.44;;;-3.06;78.00
66021;BME280;52789;59.980;30.346;2023-11-19T08:01:28;101947.28;;;-2.99;78.22
66021;BME280;52789;59.980;30.346;2023-11-19T08:03:53;101922.75;;;-3.21;80.57
66021;BME280;52789;59.980;30.346;2023-11-19T08:06:19;101940.22;;;-2.95;79.23
66021;BME280;52789;59.980;30.346;2023-11-19T08:08:45;101925.63;;;-3.01;79.00
66021;BME280;52789;59.980;30.346;2023-11-19T08:11:11;101939.69;;;-2.78;77.73
66021;BME280;52789;59.980;30.346;2023-11-19T08:13:36;101902.75;;;-2.93;77.40
66021;BME280;52789;59.980;30.346;2023-11-19T08:16:02;101927.94;;;-2.65;77.44
66021;BME280;52789;59.980;30.346;2023-11-19T08:18:27;101917.56;;;-2.67;76.42
66021;BME280;52789;59.980;30.346;2023-11-19T08:20:53;101912.41;;;-2.68;74.90
66021;BME280;52789;59.980;30.346;2023-11-19T08:23:20;101886.75;;;-2.81;74.86
66021;BME280;52789;59.980;30.346;2023-11-19T08:25:46;101915.66;;;-2.62;75.38
66021;BME280;52789;59.980;30.346;2023-11-19T08:28:12;101909.91;;;-2.71;74.94
66021;BME280;52789;59.980;30.346;2023-11-19T08:30:38;101907.44;;;-2.76;74.35
66021;BME280;52789;59.980;30.346;2023-11-19T08:33:04;101907.25;;;-2.70;74.15
66021;BME280;52789;59.980;30.346;2023-11-19T08:35:31;101887.44;;;-2.75;74.03
66021;BME280;52789;59.980;30.346;2023-11-19T08:37:57;101905.28;;;-2.63;74.76
66021;BME280;52789;59.980;30.346;2023-11-19T08:40:24;101923.09;;;-2.50;74.74
66021;BME280;52789;59.980;30.346;2023-11-19T08:42:51;101903.09;;;-2.49;74.04
66021;BME280;52789;59.980;30.346;2023-11-19T08:45:17;101878.00;;;-2.53;73.49
66021;BME280;52789;59.980;30.346;2023-11-19T08:47:42;101889.81;;;-2.43;72.61
66021;BME280;52789;59.980;30.346;2023-11-19T08:50:09;101879.66;;;-2.51;72.61
66021;BME280;52789;59.980;30.346;2023-11-19T08:52:37;101889.81;;;-2.43;71.92
66021;BME280;52789;59.980;30.346;2023-11-19T08:55:03;101902.75;;;-2.40;72.52
66021;BME280;52789;59.980;30.346;2023-11-19T08:57:32;101909.47;;;-2.33;72.54
66021;BME280;52789;59.980;30.346;2023-11-19T08:59:59;101913.75;;;-2.30;72.63
66021;BME280;52789;59.980;30.346;2023-11-19T09:02:25;101908.50;;;-2.29;71.79
66021;BME280;52789;59.980;30.346;2023-11-19T09:04:51;101896.75;;;-2.42;72.73
66021;BME280;52789;59.980;30.346;2023-11-19T09:07:16;101899.31;;;-2.40;72.38
66021;BME280;52789;59.980;30.346;2023-11-19T09:09:42;101912.28;;;-2.39;72.31
66021;BME280;52789;59.980;30.346;2023-11-19T09:12:08;101749.63;;;-3.37;73.42
66021;BME280;52789;59.980;30.346;2023-11-19T09:14:33;101899.25;;;-2.39;72.30
66021;BME280;52789;59.980;30.346;2023-11-19T09:16:59;101895.25;;;-2.49;72.36
66021;BME280;52789;59.980;30.346;2023-11-19T09:19:25;101882.28;;;-2.51;72.91
66021;BME280;52789;59.980;30.346;2023-11-19T09:21:54;101904.88;;;-2.25;74.01
66021;BME280;52789;59.980;30.346;2023-11-19T09:24:23;101901.34;;;-2.24;72.22
66021;BME280;52789;59.980;30.346;2023-11-19T09:26:49;101895.28;;;-2.24;71.13
66021;BME280;52789;59.980;30.346;2023-11-19T09:29:24;101896.94;;;-2.22;71.45
66021;BME280;52789;59.980;30.346;2023-11-19T09:31:49;101890.00;;;-2.23;71.72
66021;BME280;52789;59.980;30.346;2023-11-19T09:34:15;101859.00;;;-2.32;72.19
66021;BME280;52789;59.980;30.346;2023-11-19T09:36:40;101892.13;;;-2.09;71.58
66021;BME280;52789;59.980;30.346;2023-11-19T09:39:13;101880.03;;;-2.11;70.92
66021;BME280;52789;59.980;30.346;2023-11-19T09:41:44;101855.53;;;-2.32;71.44
66021;BME280;52789;59.980;30.346;2023-11-19T09:44:11;101834.34;;;-2.48;72.17
66021;BME280;52789;59.980;30.346;2023-11-19T09:46:46;101844.00;;;-2.50;71.62
66021;BME280;52789;59.980;30.346;2023-11-19T09:49:18;101885.34;;;-2.14;71.80
66021;BME280;52789;59.980;30.346;2023-11-19T09:51:49;101871.28;;;-2.10;72.09
66021;BME280;52789;59.980;30.346;2023-11-19T09:54:15;101859.09;;;-2.10;71.68
66021;BME280;52789;59.980;30.346;2023-11-19T09:56:41;101883.41;;;-1.84;71.34
66021;BME280;52789;59.980;30.346;2023-11-19T09:59:08;101881.75;;;-1.87;71.49
66021;BME280;52789;59.980;30.346;2023-11-19T10:01:38;101874.84;;;-1.88;72.71
66021;BME280;52789;59.980;30.346;2023-11-19T10:04:05;101849.00;;;-1.96;72.47
66021;BME280;52789;59.980;30.346;2023-11-19T10:06:31;101851.56;;;-1.94;71.89
66021;BME280;52789;59.980;30.346;2023-11-19T10:08:57;101837.91;;;-2.01;72.18
66021;BME280;52789;59.980;30.346;2023-11-19T10:11:26;101846.47;;;-1.97;72.44
66021;BME280;52789;59.980;30.346;2023-11-19T10:13:53;101788.53;;;-2.32;72.74
66021;BME280;52789;59.980;30.346;2023-11-19T10:16:28;101847.25;;;-1.95;73.27
66021;BME280;52789;59.980;30.346;2023-11-19T10:18:55;101859.78;;;-1.81;74.08
66021;BME280;52789;59.980;30.346;2023-11-19T10:21:21;101863.31;;;-1.82;73.06
66021;BME280;52789;59.980;30.346;2023-11-19T10:23:52;101856.31;;;-1.82;73.43
66021;BME280;52789;59.980;30.346;2023-11-19T10:26:19;101841.06;;;-1.93;73.18
66021;BME280;52789;59.980;30.346;2023-11-19T10:28:48;101844.97;;;-1.81;72.79
66021;BME280;52789;59.980;30.346;2023-11-19T10:31:18;101780.97;;;-2.14;71.66
66021;BME280;52789;59.980;30.346;2023-11-19T10:33:44;101818.31;;;-1.89;72.13
66021;BME280;52789;59.980;30.346;2023-11-19T10:36:11;101836.34;;;-1.83;71.65
66021;BME280;52789;59.980;30.346;2023-11-19T10:38:42;101835.38;;;-1.80;72.33
66021;BME280;52789;59.980;30.346;2023-11-19T10:43:54;101853.41;;;-1.73;71.45
66021;BME280;52789;59.980;30.346;2023-11-19T10:46:20;101802.63;;;-2.12;70.51
66021;BME280;52789;59.980;30.346;2023-11-19T10:48:49;101847.03;;;-1.89;70.89
66021;BME280;52789;59.980;30.346;2023-11-19T10:51:18;101862.34;;;-1.80;71.34
66021;BME280;52789;59.980;30.346;2023-11-19T10:53:49;101833.75;;;-1.83;71.75
66021;BME280;52789;59.980;30.346;2023-11-19T10:56:16;101840.34;;;-1.73;70.91
66021;BME280;52789;59.980;30.346;2023-11-19T10:58:45;101842.66;;;-1.65;70.51
66021;BME280;52789;59.980;30.346;2023-11-19T11:01:19;101828.00;;;-1.93;70.37
66021;BME280;52789;59.980;30.346;2023-11-19T11:03:50;101849.81;;;-1.94;72.15
66021;BME280;52789;59.980;30.346;2023-11-19T11:06:17;101828.38;;;-2.03;71.80
66021;BME280;52789;59.980;30.346;2023-11-19T11:08:44;101842.16;;;-1.98;72.02
66021;BME280;52789;59.980;30.346;2023-11-19T11:11:16;101845.31;;;-1.90;72.47
66021;BME280;52789;59.980;30.346;2023-11-19T11:13:50;101844.19;;;-1.83;71.23
66021;BME280;52789;59.980;30.346;2023-11-19T11:16:20;101819.94;;;-1.87;71.43
66021;BME280;52789;59.980;30.346;2023-11-19T11:18:49;101843.16;;;-1.79;71.47
66021;BME280;52789;59.980;30.346;2023-11-19T11:21:19;101823.16;;;-2.02;70.68
66021;BME280;52789;59.980;30.346;2023-11-19T11:38:04;101835.44;;;-2.05;70.28
66021;BME280;52789;59.980;30.346;2023-11-19T11:40:32;101823.47;;;-2.36;72.37
66021;BME280;52789;59.980;30.346;2023-11-19T11:42:58;101810.50;;;-2.62;72.50
66021;BME280;52789;59.980;30.346;2023-11-19T11:45:40;101837.28;;;-2.57;73.58
66021;BME280;52789;59.980;30.346;2023-11-19T11:50:48;101817.41;;;-2.86;75.79
66021;BME280;52789;59.980;30.346;2023-11-19T11:53:18;101840.72;;;-2.82;77.76
66021;BME280;52789;59.980;30.346;2023-11-19T11:58:13;101833.19;;;-2.91;79.43
66021;BME280;52789;59.980;30.346;2023-11-19T12:00:40;101819.34;;;-2.93;79.90
66021;BME280;52789;59.980;30.346;2023-11-19T12:03:08;101810.00;;;-2.98;80.14
66021;BME280;52789;59.980;30.346;2023-11-19T12:05:40;101820.19;;;-2.92;79.69
66021;BME280;52789;59.980;30.346;2023-11-19T12:08:07;101815.31;;;-3.01;80.77
66021;BME280;52789;59.980;30.346;2023-11-19T12:10:45;101796.72;;;-3.17;81.77
66021;BME280;52789;59.980;30.346;2023-11-19T12:13:13;101774.75;;;-3.36;82.58
66021;BME280;52789;59.980;30.346;2023-11-19T12:18:24;101807.16;;;-3.19;83.72
66021;BME280;52789;59.980;30.346;2023-11-19T12:20:51;101796.19;;;-3.28;84.61
66021;BME280;52789;59.980;30.346;2023-11-19T12:23:17;101812.47;;;-3.22;84.73
66021;BME280;52789;59.980;30.346;2023-11-19T12:25:43;101797.16;;;-3.31;85.71
66021;BME280;52789;59.980;30.346;2023-11-19T12:28:14;101810.59;;;-3.17;84.73
66021;BME280;52789;59.980;30.346;2023-11-19T12:30:45;101797.59;;;-3.18;83.74
66021;BME280;52789;59.980;30.346;2023-11-19T12:33:12;101802.53;;;-3.09;83.07
66021;BME280;52789;59.980;30.346;2023-11-19T12:35:41;101802.28;;;-3.01;83.46
66021;BME280;52789;59.980;30.346;2023-11-19T12:38:18;101800.84;;;-3.10;83.06
66021;BME280;52789;59.980;30.346;2023-11-19T12:40:46;101807.53;;;-3.03;82.51
66021;BME280;52789;59.980;30.346;2023-11-19T12:43:21;101801.03;;;-3.16;82.48
66021;BME280;52789;59.980;30.346;2023-11-19T12:45:50;101808.94;;;-3.19;82.90
66021;BME280;52789;59.980;30.346;2023-11-19T12:48:16;101794.66;;;-3.34;83.83
66021;BME280;52789;59.980;30.346;2023-11-19T12:50:58;101799.75;;;-3.31;84.09
66021;BME280;52789;59.980;30.346;2023-11-19T12:53:26;101783.81;;;-3.48;84.69
66021;BME280;52789;59.980;30.346;2023-11-19T12:55:54;101787.31;;;-3.49;85.26
66021;BME280;52789;59.980;30.346;2023-11-19T12:58:34;101807.13;;;-3.44;85.28
66021;BME280;52789;59.980;30.346;2023-11-19T13:01:07;101805.59;;;-3.51;86.65
66021;BME280;52789;59.980;30.346;2023-11-19T13:03:35;101766.31;;;-3.71;86.70
66021;BME280;52789;59.980;30.346;2023-11-19T13:06:02;101729.44;;;-3.85;86.39